createdAt,value
2023-03-21T00:01:58.184Z,15.17
2023-03-21T00:04:31.315Z,14.40
2023-03-21T00:07:02.351Z,15.27
2023-03-21T00:09:29.309Z,15.50
2023-03-21T00:12:01.988Z,16.13
2023-03-21T00:14:31.291Z,14.10
2023-03-21T00:16:58.275Z,18.53
2023-03-21T00:19:29.349Z,16.63
2023-03-21T00:24:46.910Z,17.13
2023-03-21T00:27:39.751Z,18.00
2023-03-21T00:30:00.868Z,16.27
2023-03-21T00:32:37.513Z,15.73
2023-03-21T00:35:45.271Z,15.97
2023-03-21T00:37:56.612Z,23.10
2023-03-21T00:40:29.511Z,18.57
2023-03-21T00:42:59.833Z,16.07
2023-03-21T00:45:26.621Z,18.83
2023-03-21T00:47:53.733Z,16.50
2023-03-21T00:50:21.078Z,17.90
2023-03-21T00:52:48.630Z,19.10
2023-03-21T00:55:17.864Z,17.33
2023-03-21T00:57:50.096Z,17.47
2023-03-21T01:00:25.752Z,21.47
2023-03-21T01:03:04.404Z,17.53
2023-03-21T01:06:04.275Z,24.53
2023-03-21T01:08:44.926Z,22.97
2023-03-21T01:11:19.191Z,24.73
2023-03-21T01:13:54.921Z,24.13
2023-03-21T01:16:25.511Z,23.80
2023-03-21T01:18:52.921Z,26.50
2023-03-21T01:21:19.996Z,19.67
2023-03-21T01:23:46.835Z,23.47
2023-03-21T01:26:16.577Z,23.70
2023-03-21T01:28:44.472Z,19.23
2023-03-21T01:31:16.545Z,21.03
2023-03-21T01:33:43.947Z,19.57
2023-03-21T01:36:20.394Z,26.50
2023-03-21T01:38:48.678Z,23.83
2023-03-21T01:41:41.955Z,20.67
2023-03-21T01:44:16.311Z,26.10
2023-03-21T01:49:45.929Z,24.33
2023-03-21T01:52:29.783Z,27.90
2023-03-21T01:55:07.027Z,23.07
2023-03-21T01:57:54.885Z,27.97
2023-03-21T02:00:29.604Z,23.90
2023-03-21T02:03:11.089Z,27.27
2023-03-21T02:06:02.455Z,26.90
2023-03-21T02:08:39.138Z,27.70
2023-03-21T02:11:10.012Z,24.53
2023-03-21T02:13:37.681Z,27.57
2023-03-21T02:16:31.124Z,29.07
2023-03-21T02:19:47.544Z,26.13
2023-03-21T02:22:55.595Z,27.43
2023-03-21T02:25:46.688Z,28.23
2023-03-21T02:28:13.759Z,29.40
2023-03-21T02:31:02.171Z,25.13
2023-03-21T02:33:33.815Z,27.83
2023-03-21T02:36:28.139Z,26.77
2023-03-21T02:39:01.101Z,24.30
2023-03-21T02:41:32.479Z,30.37
2023-03-21T02:44:09.582Z,30.47
2023-03-21T02:47:02.997Z,33.73
2023-03-21T02:49:45.318Z,28.57
2023-03-21T02:52:25.756Z,28.77
2023-03-21T02:55:01.055Z,25.73
2023-03-21T02:57:40.042Z,29.03
2023-03-21T03:00:16.759Z,29.17
2023-03-21T03:02:44.704Z,35.77
2023-03-21T03:05:22.170Z,34.70
2023-03-21T03:08:01.080Z,31.17
2023-03-21T03:10:40.213Z,36.83
2023-03-21T03:13:13.570Z,30.27
2023-03-21T03:15:59.353Z,32.63
2023-03-21T03:18:50.484Z,31.47
2023-03-21T03:21:24.269Z,31.47
2023-03-21T03:23:54.011Z,33.23
2023-03-21T03:26:34.054Z,36.77
2023-03-21T03:29:05.763Z,33.37
2023-03-21T03:31:41.549Z,33.80
2023-03-21T03:34:14.395Z,44.97
2023-03-21T03:36:47.643Z,38.70
2023-03-21T03:39:16.815Z,40.53
2023-03-21T03:42:27.122Z,44.20
2023-03-21T03:44:56.032Z,37.50
2023-03-21T03:47:55.926Z,38.63
2023-03-21T03:50:39.156Z,45.87
2023-03-21T03:53:33.521Z,38.87
2023-03-21T03:56:01.732Z,36.53
2023-03-21T03:58:44.905Z,34.77
2023-03-21T04:01:13.419Z,34.67
2023-03-21T04:03:49.772Z,33.50
2023-03-21T04:06:21.535Z,34.60
2023-03-21T04:08:50.957Z,29.80
2023-03-21T04:11:19.040Z,30.30
2023-03-21T04:13:46.232Z,27.90
2023-03-21T04:16:14.284Z,25.83
2023-03-21T04:18:41.985Z,26.30
2023-03-21T04:21:13.733Z,21.83
2023-03-21T04:23:45.485Z,29.37
2023-03-21T04:26:12.398Z,33.47
2023-03-21T04:28:40.069Z,29.30
2023-03-21T04:31:16.127Z,28.63
2023-03-21T04:33:50.306Z,22.73
2023-03-21T04:36:25.113Z,24.60
2023-03-21T04:38:52.658Z,29.30
2023-03-21T04:41:20.042Z,24.93
2023-03-21T04:43:47.467Z,27.20
2023-03-21T04:46:14.859Z,26.97
2023-03-21T04:48:41.907Z,25.00
2023-03-21T04:51:08.780Z,25.07
2023-03-21T04:53:36.387Z,28.77
2023-03-21T04:56:03.160Z,25.67
2023-03-21T04:58:30.471Z,28.17
2023-03-21T05:00:57.764Z,21.23
2023-03-21T05:03:25.267Z,24.20
2023-03-21T05:05:52.139Z,26.70
2023-03-21T05:08:22.027Z,23.47
2023-03-21T05:10:49.438Z,33.90
2023-03-21T05:13:16.188Z,25.77
2023-03-21T05:15:43.221Z,28.63
2023-03-21T05:18:11.063Z,22.60
2023-03-21T05:20:42.744Z,23.97
2023-03-21T05:23:11.197Z,21.00
2023-03-21T05:25:40.516Z,24.17
2023-03-21T05:28:09.082Z,26.37
2023-03-21T05:30:36.209Z,19.47
2023-03-21T05:33:03.557Z,20.13
2023-03-21T05:35:31.026Z,21.93
2023-03-21T05:37:58.218Z,26.93
2023-03-21T05:40:28.789Z,24.97
2023-03-21T05:42:55.656Z,25.27
2023-03-21T05:45:22.804Z,28.77
2023-03-21T05:47:49.652Z,21.83
2023-03-21T05:50:17.238Z,24.03
2023-03-21T05:52:46.733Z,21.33
2023-03-21T05:55:13.684Z,21.57
2023-03-21T05:57:41.045Z,21.83
2023-03-21T06:00:09.038Z,24.90
2023-03-21T06:02:35.969Z,20.57
2023-03-21T06:05:02.913Z,22.13
2023-03-21T06:07:30.005Z,20.83
2023-03-21T06:09:56.823Z,19.23
2023-03-21T06:12:26.034Z,19.60
2023-03-21T06:14:53.040Z,21.67
2023-03-21T06:17:20.616Z,18.77
2023-03-21T06:19:47.624Z,19.87
2023-03-21T06:22:14.356Z,21.97
2023-03-21T06:24:41.123Z,19.53
2023-03-21T06:27:08.397Z,22.83
2023-03-21T06:29:37.519Z,19.67
2023-03-21T06:32:09.772Z,21.47
2023-03-21T06:34:39.321Z,23.53
2023-03-21T06:37:06.248Z,21.10
2023-03-21T06:39:33.287Z,19.10
2023-03-21T06:42:01.282Z,19.43
2023-03-21T06:44:28.606Z,21.07
2023-03-21T06:46:55.461Z,20.90
2023-03-21T06:49:22.693Z,20.90
2023-03-21T06:51:52.136Z,23.37
2023-03-21T06:54:21.970Z,17.70
2023-03-21T06:56:49.083Z,20.60
2023-03-21T06:59:20.933Z,16.87
2023-03-21T07:01:48.620Z,17.53
2023-03-21T07:04:15.658Z,18.03
2023-03-21T07:06:42.492Z,20.70
2023-03-21T07:09:10.069Z,21.50
2023-03-21T07:11:37.653Z,21.43
2023-03-21T07:14:05.067Z,17.10
2023-03-21T07:16:32.907Z,19.10
2023-03-21T07:19:03.045Z,19.77
2023-03-21T07:21:29.969Z,23.97
2023-03-21T07:23:57.135Z,19.80
2023-03-21T07:26:23.953Z,22.73
2023-03-21T07:28:51.006Z,25.60
2023-03-21T07:31:19.702Z,18.33
2023-03-21T07:33:51.523Z,22.43
2023-03-21T07:36:19.069Z,23.43
2023-03-21T07:38:46.502Z,19.70
2023-03-21T07:41:14.023Z,23.53
2023-03-21T07:43:40.834Z,18.73
2023-03-21T07:46:08.009Z,16.43
2023-03-21T07:48:34.867Z,22.43
2023-03-21T07:51:02.376Z,20.60
2023-03-21T07:53:29.431Z,21.90
2023-03-21T07:55:56.623Z,17.90
2023-03-21T07:58:26.610Z,19.50
2023-03-21T08:00:56.647Z,19.00
2023-03-21T08:03:24.139Z,21.30
2023-03-21T08:05:51.194Z,21.83
2023-03-21T08:08:24.940Z,21.17
2023-03-21T08:10:52.119Z,20.47
2023-03-21T08:13:19.109Z,16.90
2023-03-21T08:15:46.475Z,21.43
2023-03-21T08:18:13.221Z,19.43
2023-03-21T08:20:41.302Z,21.73
2023-03-21T08:23:08.453Z,20.83
2023-03-21T08:25:35.749Z,20.87
2023-03-21T08:28:03.513Z,19.47
2023-03-21T08:30:30.785Z,21.73
2023-03-21T08:33:02.666Z,18.23
2023-03-21T08:35:31.676Z,19.63
2023-03-21T08:37:59.102Z,21.07
2023-03-21T08:40:26.024Z,21.70
2023-03-21T08:42:53.289Z,20.77
2023-03-21T08:45:20.133Z,20.00
2023-03-21T08:47:47.458Z,23.40
2023-03-21T08:50:21.091Z,20.97
2023-03-21T08:52:50.260Z,21.63
2023-03-21T08:55:18.807Z,20.90
2023-03-21T08:57:46.567Z,22.90
2023-03-21T09:00:17.246Z,17.03
2023-03-21T09:02:49.797Z,19.50
2023-03-21T09:05:17.279Z,19.83
2023-03-21T09:07:46.085Z,22.93
2023-03-21T09:10:21.522Z,17.57
2023-03-21T09:12:51.681Z,22.67
2023-03-21T09:15:20.725Z,20.60
2023-03-21T09:17:52.776Z,21.87
2023-03-21T09:20:26.550Z,23.10
2023-03-21T09:22:54.270Z,16.37
2023-03-21T09:25:21.690Z,19.40
2023-03-21T09:27:49.283Z,20.53
2023-03-21T09:30:19.167Z,22.33
2023-03-21T09:32:50.674Z,18.77
2023-03-21T09:35:19.482Z,25.10
2023-03-21T09:37:50.286Z,22.33
2023-03-21T09:40:40.317Z,23.13
2023-03-21T09:43:16.274Z,24.00
2023-03-21T09:46:03.951Z,21.57
2023-03-21T09:48:57.037Z,22.03
2023-03-21T09:51:33.849Z,19.23
2023-03-21T09:54:07.528Z,20.20
2023-03-21T09:56:38.800Z,21.90
2023-03-21T09:59:09.111Z,19.87
2023-03-21T10:01:45.937Z,19.40
2023-03-21T10:04:23.373Z,18.97
2023-03-21T10:06:59.294Z,15.33
2023-03-21T10:09:28.250Z,21.33
2023-03-21T10:12:22.488Z,19.30
2023-03-21T10:14:57.976Z,18.83
2023-03-21T10:17:43.576Z,17.53
2023-03-21T10:20:23.899Z,16.03
2023-03-21T10:22:56.898Z,14.63
2023-03-21T10:25:35.503Z,19.30
2023-03-21T10:28:06.232Z,19.87
2023-03-21T10:30:33.417Z,15.53
2023-03-21T10:33:05.574Z,13.03
2023-03-21T10:35:37.397Z,20.00
2023-03-21T10:38:06.383Z,13.50
2023-03-21T10:40:35.461Z,15.67
2023-03-21T10:43:31.971Z,17.37
2023-03-21T10:45:58.885Z,16.03
2023-03-21T10:48:26.249Z,13.33
2023-03-21T10:50:55.690Z,17.10
2023-03-21T10:53:39.856Z,14.70
2023-03-21T10:56:10.344Z,17.07
2023-03-21T10:58:47.514Z,16.37
2023-03-21T11:01:26.182Z,13.67
2023-03-21T11:03:58.130Z,13.97
2023-03-21T11:06:41.695Z,16.87
2023-03-21T11:09:17.061Z,19.50
2023-03-21T11:12:02.599Z,15.03
2023-03-21T11:14:49.609Z,17.07
2023-03-21T11:17:29.489Z,13.40
2023-03-21T11:20:02.111Z,14.60
2023-03-21T11:22:40.822Z,14.33
2023-03-21T11:25:12.198Z,17.00
2023-03-21T11:27:49.592Z,13.17
2023-03-21T11:30:25.816Z,14.33
2023-03-21T11:32:57.109Z,11.50
2023-03-21T11:35:28.084Z,14.63
2023-03-21T11:37:56.545Z,18.40
2023-03-21T11:40:30.932Z,14.67
2023-03-21T11:43:22.285Z,15.87
2023-03-21T11:46:01.504Z,13.17
2023-03-21T11:48:29.624Z,13.57
2023-03-21T11:51:12.781Z,15.47
2023-03-21T11:54:01.035Z,12.93
2023-03-21T11:56:33.585Z,12.20
2023-03-21T11:59:12.310Z,12.90
2023-03-21T12:02:13.430Z,14.27
2023-03-21T12:04:55.692Z,14.67
2023-03-21T12:07:43.375Z,13.33
2023-03-21T12:10:22.118Z,13.00
2023-03-21T12:13:06.974Z,15.97
2023-03-21T12:16:18.345Z,16.00
2023-03-21T12:19:23.677Z,16.37
2023-03-21T12:22:09.183Z,17.20
2023-03-21T12:24:46.723Z,14.63
2023-03-21T12:27:32.241Z,16.57
2023-03-21T12:30:26.608Z,11.63
2023-03-21T12:33:13.756Z,15.50
2023-03-21T12:35:59.694Z,10.03
2023-03-21T12:38:58.530Z,13.67
2023-03-21T12:41:33.871Z,14.63
2023-03-21T12:44:00.859Z,10.30
2023-03-21T12:46:37.063Z,16.03
2023-03-21T12:49:42.719Z,14.63
2023-03-21T12:52:34.171Z,10.33
2023-03-21T12:55:20.333Z,9.73
2023-03-21T12:57:59.273Z,11.83
2023-03-21T13:00:44.918Z,10.27
2023-03-21T13:03:30.549Z,11.87
2023-03-21T13:06:07.677Z,9.07
2023-03-21T13:08:40.243Z,8.43
2023-03-21T13:11:10.753Z,12.17
2023-03-21T13:14:04.591Z,13.70
2023-03-21T13:16:39.977Z,11.07
2023-03-21T13:19:31.256Z,10.33
2023-03-21T13:22:09.272Z,10.30
2023-03-21T13:24:48.718Z,11.90
2023-03-21T13:27:25.039Z,8.33
2023-03-21T13:29:58.055Z,8.83
2023-03-21T13:32:34.339Z,9.93
2023-03-21T13:35:27.944Z,13.27
2023-03-21T13:38:03.378Z,9.57
2023-03-21T13:40:48.296Z,8.03
2023-03-21T13:43:41.050Z,10.83
2023-03-21T13:46:26.375Z,8.53
2023-03-21T13:48:58.956Z,10.13
2023-03-21T13:51:29.663Z,6.57
2023-03-21T13:54:09.092Z,6.47
2023-03-21T13:56:54.374Z,4.83
2023-03-21T13:59:44.323Z,7.33
2023-03-21T14:02:35.638Z,8.50
2023-03-21T14:05:17.876Z,9.50
2023-03-21T14:07:49.846Z,9.37
2023-03-21T14:10:35.116Z,7.40
2023-03-21T14:13:06.210Z,10.63
2023-03-21T14:16:00.150Z,7.77
2023-03-21T14:18:52.488Z,7.03
2023-03-21T14:21:31.880Z,11.40
2023-03-21T14:24:05.415Z,7.43
2023-03-21T14:26:37.754Z,6.23
2023-03-21T14:29:25.208Z,6.63
2023-03-21T14:31:55.626Z,6.67
2023-03-21T14:34:24.522Z,7.47
2023-03-21T14:36:58.289Z,6.97
2023-03-21T14:39:33.610Z,8.00
2023-03-21T14:42:09.514Z,6.03
2023-03-21T14:44:55.889Z,7.10
2023-03-21T14:47:29.360Z,5.87
2023-03-21T14:49:58.500Z,6.27
2023-03-21T14:52:33.376Z,7.13
2023-03-21T14:55:02.297Z,6.27
2023-03-21T14:57:32.446Z,5.70
2023-03-21T15:00:17.668Z,7.90
2023-03-21T15:02:48.525Z,6.23
2023-03-21T15:05:24.610Z,5.53
2023-03-21T15:08:00.476Z,5.47
2023-03-21T15:10:30.784Z,6.60
2023-03-21T15:13:00.765Z,6.23
2023-03-21T15:15:29.963Z,9.13
2023-03-21T15:18:02.703Z,6.40
2023-03-21T15:20:33.895Z,5.27
2023-03-21T15:23:16.441Z,4.83
2023-03-21T15:25:43.747Z,4.50
2023-03-21T15:28:14.805Z,6.07
2023-03-21T15:30:55.150Z,7.13
2023-03-21T15:33:25.956Z,4.87
2023-03-21T15:35:58.683Z,3.07
2023-03-21T15:38:34.618Z,3.83
2023-03-21T15:41:21.333Z,5.30
2023-03-21T15:43:54.587Z,7.03
2023-03-21T15:46:44.217Z,5.57
2023-03-21T15:49:17.000Z,5.60
2023-03-21T15:51:48.808Z,5.37
2023-03-21T15:54:22.071Z,4.83
2023-03-21T15:56:51.879Z,7.13
2023-03-21T15:59:19.617Z,5.43
2023-03-21T16:01:51.354Z,4.93
2023-03-21T16:04:19.378Z,6.60
2023-03-21T16:07:15.578Z,3.83
2023-03-21T16:09:45.965Z,4.67
2023-03-21T16:12:18.338Z,3.87
2023-03-21T16:14:47.348Z,4.37
2023-03-21T16:17:30.999Z,4.40
2023-03-21T16:19:57.942Z,3.67
2023-03-21T16:22:28.886Z,5.17
2023-03-21T16:24:56.128Z,7.17
2023-03-21T16:27:22.985Z,6.10
2023-03-21T16:29:49.776Z,3.90
2023-03-21T16:32:18.604Z,4.17
2023-03-21T16:34:46.329Z,2.87
2023-03-21T16:37:16.040Z,5.57
2023-03-21T16:39:43.531Z,4.70
2023-03-21T16:42:13.881Z,3.83
2023-03-21T16:44:41.090Z,4.03
2023-03-21T16:47:15.868Z,3.83
2023-03-21T16:49:43.928Z,4.97
2023-03-21T16:52:12.837Z,3.30
2023-03-21T16:54:41.104Z,3.60
2023-03-21T16:57:15.636Z,6.47
2023-03-21T16:59:43.005Z,4.43
2023-03-21T17:02:14.585Z,3.80
2023-03-21T17:04:41.391Z,6.23
2023-03-21T17:07:14.685Z,3.80
2023-03-21T17:09:43.813Z,3.60
2023-03-21T17:12:16.458Z,4.13
2023-03-21T17:14:48.006Z,4.87
2023-03-21T17:17:17.432Z,3.50
2023-03-21T17:19:45.174Z,4.57
2023-03-21T17:22:14.658Z,3.70
2023-03-21T17:24:47.247Z,4.93
2023-03-21T17:27:15.381Z,4.40
2023-03-21T17:29:46.619Z,4.97
2023-03-21T17:32:17.258Z,3.60
2023-03-21T17:34:44.352Z,6.67
2023-03-21T17:37:12.604Z,5.40
2023-03-21T17:39:46.283Z,3.17
2023-03-21T17:42:20.547Z,6.97
2023-03-21T17:44:47.478Z,4.77
2023-03-21T17:47:14.270Z,5.87
2023-03-21T17:49:41.481Z,4.67
2023-03-21T17:52:08.808Z,7.70
2023-03-21T17:54:38.218Z,6.40
2023-03-21T17:57:10.140Z,5.07
2023-03-21T17:59:37.101Z,6.13
2023-03-21T18:02:17.394Z,8.20
2023-03-21T18:04:50.349Z,5.80
2023-03-21T18:07:54.501Z,4.70
2023-03-21T18:10:16.495Z,5.43
2023-03-21T18:12:45.657Z,7.27
2023-03-21T18:15:30.493Z,5.03
2023-03-21T18:17:58.524Z,4.10
2023-03-21T18:23:19.396Z,5.67
2023-03-21T18:25:46.532Z,5.33
2023-03-21T18:28:13.936Z,5.27
2023-03-21T18:31:00.950Z,9.37
2023-03-21T18:33:31.409Z,8.77
2023-03-21T18:36:07.013Z,5.60
2023-03-21T18:38:34.936Z,5.60
2023-03-21T18:41:03.738Z,6.43
2023-03-21T18:46:18.140Z,5.13
2023-03-21T18:48:46.588Z,5.80
2023-03-21T18:51:21.586Z,3.87
2023-03-21T18:53:49.559Z,3.67
2023-03-21T18:57:13.248Z,8.70
2023-03-21T18:59:10.007Z,6.57
2023-03-21T19:01:37.869Z,6.83
2023-03-21T19:04:22.844Z,6.07
2023-03-21T19:06:52.292Z,8.03
2023-03-21T19:09:29.565Z,7.27
2023-03-21T19:11:59.314Z,6.93
2023-03-21T19:14:31.752Z,6.60
2023-03-21T19:17:55.905Z,6.47
2023-03-21T19:19:46.879Z,5.33
2023-03-21T19:22:18.273Z,8.40
2023-03-21T19:24:47.174Z,6.17
2023-03-21T19:27:14.721Z,6.17
2023-03-21T19:29:41.977Z,7.40
2023-03-21T19:32:09.028Z,5.27
2023-03-21T19:34:36.956Z,6.23
2023-03-21T19:37:04.479Z,5.53
2023-03-21T19:39:31.942Z,8.37
2023-03-21T19:42:15.033Z,7.13
2023-03-21T19:44:48.767Z,5.83
2023-03-21T19:47:16.547Z,7.73
2023-03-21T19:50:34.985Z,5.37
2023-03-21T19:52:37.548Z,8.07
2023-03-21T19:55:05.559Z,6.80
2023-03-21T19:57:32.414Z,6.37
2023-03-21T19:59:59.757Z,6.57
2023-03-21T20:02:35.616Z,9.43
2023-03-21T20:05:04.266Z,8.07
2023-03-21T20:07:33.087Z,6.03
2023-03-21T20:10:00.631Z,7.63
2023-03-21T20:12:27.732Z,6.53
2023-03-21T20:15:06.917Z,7.37
2023-03-21T20:17:39.220Z,7.60
2023-03-21T20:20:18.352Z,8.83
2023-03-21T20:25:38.837Z,8.57
2023-03-21T20:28:20.244Z,6.93
2023-03-21T20:31:01.021Z,7.53
2023-03-21T20:33:29.398Z,6.93
2023-03-21T20:38:55.605Z,12.83
2023-03-21T20:41:22.711Z,8.77
2023-03-21T20:46:37.797Z,11.03
2023-03-21T20:49:06.762Z,9.47
2023-03-21T20:54:21.653Z,9.70
2023-03-21T20:56:48.953Z,12.90
2023-03-21T20:59:26.532Z,10.73
2023-03-21T21:01:58.731Z,8.77
2023-03-21T21:04:52.905Z,10.50
2023-03-21T21:07:28.682Z,9.27
2023-03-21T21:09:56.333Z,9.07
2023-03-21T21:12:30.780Z,10.63
2023-03-21T21:14:57.765Z,10.30
2023-03-21T21:18:02.104Z,8.23
2023-03-21T21:20:21.398Z,8.33
2023-03-21T21:23:00.097Z,11.07
2023-03-21T21:25:48.096Z,10.03
2023-03-21T21:28:17.596Z,9.00
2023-03-21T21:30:45.004Z,8.63
2023-03-21T21:33:17.196Z,10.30
2023-03-21T21:35:48.587Z,10.47
2023-03-21T21:38:19.984Z,7.83
2023-03-21T21:40:49.026Z,10.03
2023-03-21T21:43:18.969Z,6.10
2023-03-21T21:45:51.139Z,7.37
2023-03-21T21:48:18.098Z,7.17
2023-03-21T21:50:47.343Z,7.83
2023-03-21T21:53:19.332Z,8.47
2023-03-21T21:55:48.039Z,9.63
2023-03-21T21:58:21.722Z,9.70
2023-03-21T22:00:56.264Z,12.47
2023-03-21T22:03:23.813Z,11.57
2023-03-21T22:05:58.591Z,7.07
2023-03-21T22:08:25.821Z,8.47
2023-03-21T22:10:53.475Z,8.80
2023-03-21T22:13:21.179Z,10.47
2023-03-21T22:15:48.843Z,9.23
2023-03-21T22:18:15.863Z,10.53
2023-03-21T22:20:43.176Z,9.63
2023-03-21T22:23:13.140Z,9.63
2023-03-21T22:25:40.417Z,8.77
2023-03-21T22:28:08.214Z,9.20
2023-03-21T22:30:35.407Z,10.57
2023-03-21T22:33:09.581Z,9.77
2023-03-21T22:35:38.000Z,8.70
2023-03-21T22:38:05.660Z,10.43
2023-03-21T22:40:32.887Z,9.77
2023-03-21T22:43:00.196Z,8.90
2023-03-21T22:45:27.325Z,10.03
2023-03-21T22:47:54.348Z,10.83
2023-03-21T22:50:24.788Z,10.23
2023-03-21T22:52:51.783Z,10.30
2023-03-21T22:55:18.769Z,9.13
2023-03-21T22:57:46.047Z,11.20
2023-03-21T23:00:13.800Z,8.50
2023-03-21T23:02:41.569Z,8.83
2023-03-21T23:05:10.745Z,10.00
2023-03-21T23:07:38.558Z,9.77
2023-03-21T23:10:07.446Z,9.27
2023-03-21T23:12:34.894Z,10.30
2023-03-21T23:15:09.865Z,8.90
2023-03-21T23:17:37.530Z,10.00
2023-03-21T23:20:11.484Z,7.83
2023-03-21T23:22:38.840Z,9.83
2023-03-21T23:25:08.255Z,9.93
2023-03-21T23:27:35.833Z,10.37
2023-03-21T23:30:05.270Z,8.03
2023-03-21T23:32:33.545Z,9.27
2023-03-21T23:35:00.905Z,9.83
2023-03-21T23:37:30.112Z,7.97
2023-03-21T23:39:57.340Z,8.70
2023-03-21T23:42:25.534Z,10.37
2023-03-21T23:44:52.629Z,6.93
2023-03-21T23:47:19.679Z,7.50
2023-03-21T23:49:49.146Z,8.10
2023-03-21T23:52:16.411Z,8.60
2023-03-21T23:54:43.347Z,9.53
2023-03-21T23:57:10.996Z,7.73
2023-03-21T23:59:38.019Z,9.03
